Middle River, Minnesota
Current Conditions -  °F | °C
As of 6:55 AM on Friday 24 Oct 2014 (Local Time) from KTVF Reporting Station
Clear Clear  
Wind Chill: 41°   Ceiling: Unl
Heat Index: 46°   Visibility: 10mi
Dew Point: 39°   Wind: 10mph
Humidity: 76%   Direction: 190°S
Pressure: 29.75"   Gusts: NA
Location:  48.43°N, 96.16°W
Report Text: KTVF 241155Z AUTO 19009KT 10SM CLR 08/04 A2975 RMK AO1 10110 20080 57003
Loading
Personal Weather Stations






























Interactive Weather Map
Tropical Storm Tracking
New forecast layout! Learn more

10-Day Weather Forecast

Advertisements
Track Severe Weather on mobile